QNT211 UZTT-EVRA
Flight info
| Callsign | QNT211 |
|---|---|
| Flight time | 4h 47m |
| Altitude | 34000 |
| Route | MIKNO L163 RUGUS L163 SIVKO M166 ARISA L736 GODBI N609 KUGEK M869 OPOKA M869 BARVA |
| Aircraft | A21N/M-SDE2E3FGHIRWXY/LB1 |
Departure
| Time | 2026-04-22 15:27 |
|---|---|
| Airport | Tashkent International Airport (UZTT) |
Arrival
| Time | 2026-04-22 20:14 |
|---|---|
| Airport | Riga International Airport (EVRA) |
| Time | Latitude | Longitude | Altitude | Speed | Heading |
|---|---|---|---|---|---|
| 2026-04-22 15:08 | 41.25993 | 69.26871 | 1358 ft | 0 kts | 336° |
| 2026-04-22 15:23 | 41.26000 | 69.26867 | 1415 ft | 2 kts | 336° |
| 2026-04-22 15:23 | 41.26017 | 69.26853 | 1415 ft | 4 kts | 308° |
| 2026-04-22 15:23 | 41.26023 | 69.26814 | 1415 ft | 5 kts | 261° |
| 2026-04-22 15:23 | 41.26006 | 69.26758 | 1416 ft | 8 kts | 246° |
| 2026-04-22 15:24 | 41.25982 | 69.26685 | 1415 ft | 9 kts | 246° |
| 2026-04-22 15:24 | 41.25954 | 69.26601 | 1413 ft | 11 kts | 246° |
| 2026-04-22 15:24 | 41.25919 | 69.26507 | 1417 ft | 12 kts | 236° |
| 2026-04-22 15:24 | 41.25857 | 69.26426 | 1414 ft | 13 kts | 219° |
| 2026-04-22 15:25 | 41.25779 | 69.26356 | 1417 ft | 14 kts | 186° |
| 2026-04-22 15:25 | 41.25687 | 69.26390 | 1417 ft | 12 kts | 148° |
| 2026-04-22 15:25 | 41.25662 | 69.26447 | 1420 ft | 5 kts | 85° |
| 2026-04-22 15:25 | 41.25663 | 69.26463 | 1417 ft | 0 kts | 82° |
| 2026-04-22 15:26 | 41.25681 | 69.26625 | 1419 ft | 50 kts | 82° |
| 2026-04-22 15:26 | 41.25767 | 69.27391 | 1421 ft | 115 kts | 80° |
| 2026-04-22 15:26 | 41.25909 | 69.28677 | 1419 ft | 161 kts | 81° |
| 2026-04-22 15:26 | 41.26095 | 69.30331 | 1517 ft | 192 kts | 80° |
| 2026-04-22 15:27 | 41.26269 | 69.32063 | 2222 ft | 189 kts | 83° |
| 2026-04-22 15:27 | 41.26428 | 69.33823 | 2786 ft | 197 kts | 86° |
| 2026-04-22 15:27 | 41.26596 | 69.35723 | 3263 ft | 215 kts | 86° |
| 2026-04-22 15:27 | 41.26820 | 69.37754 | 3768 ft | 228 kts | 83° |
| 2026-04-22 15:28 | 41.27077 | 69.39868 | 4460 ft | 233 kts | 83° |
| 2026-04-22 15:28 | 41.27328 | 69.42017 | 5170 ft | 237 kts | 83° |
| 2026-04-22 15:28 | 41.27575 | 69.44194 | 5911 ft | 240 kts | 83° |
| 2026-04-22 15:28 | 41.27758 | 69.46395 | 6613 ft | 241 kts | 97° |
| 2026-04-22 15:29 | 41.27309 | 69.48536 | 7085 ft | 248 kts | 124° |
| 2026-04-22 15:29 | 41.26122 | 69.50218 | 7477 ft | 253 kts | 153° |
| 2026-04-22 15:29 | 41.24505 | 69.51169 | 7989 ft | 256 kts | 170° |
| 2026-04-22 15:30 | 41.21040 | 69.50168 | 9022 ft | 269 kts | 221° |
| 2026-04-22 15:30 | 41.19891 | 69.48220 | 9767 ft | 271 kts | 245° |
| 2026-04-22 15:30 | 41.19509 | 69.45768 | 10485 ft | 277 kts | 269° |
| 2026-04-22 15:30 | 41.20005 | 69.43211 | 10860 ft | 302 kts | 296° |
| 2026-04-22 15:31 | 41.21362 | 69.40942 | 11152 ft | 326 kts | 310° |
| 2026-04-22 15:31 | 41.22999 | 69.38733 | 11426 ft | 346 kts | 311° |
| 2026-04-22 15:31 | 41.24722 | 69.36387 | 11791 ft | 362 kts | 310° |
| 2026-04-22 15:31 | 41.26449 | 69.33968 | 12348 ft | 368 kts | 309° |
| 2026-04-22 15:32 | 41.28200 | 69.31464 | 13028 ft | 371 kts | 309° |
| 2026-04-22 15:32 | 41.29977 | 69.28893 | 13710 ft | 374 kts | 308° |
| 2026-04-22 15:32 | 41.31720 | 69.26357 | 14300 ft | 378 kts | 308° |
| 2026-04-22 15:32 | 41.33502 | 69.23760 | 14878 ft | 382 kts | 308° |
| 2026-04-22 15:33 | 41.35299 | 69.21137 | 15444 ft | 385 kts | 308° |
| 2026-04-22 15:33 | 41.37110 | 69.18490 | 15998 ft | 388 kts | 308° |
| 2026-04-22 15:33 | 41.38934 | 69.15819 | 16528 ft | 392 kts | 308° |
| 2026-04-22 15:33 | 41.40776 | 69.13119 | 17017 ft | 396 kts | 308° |
| 2026-04-22 15:34 | 41.42635 | 69.10396 | 17563 ft | 399 kts | 308° |
| 2026-04-22 15:34 | 41.44505 | 69.07648 | 18098 ft | 402 kts | 308° |
| 2026-04-22 15:34 | 41.46391 | 69.04876 | 18564 ft | 405 kts | 308° |
| 2026-04-22 15:34 | 41.48291 | 69.02085 | 19042 ft | 407 kts | 307° |
| 2026-04-22 15:35 | 41.49555 | 69.00226 | 19348 ft | 409 kts | 307° |
| 2026-04-22 15:35 | 41.52119 | 68.96452 | 19982 ft | 412 kts | 307° |
| 2026-04-22 15:35 | 41.54049 | 68.93607 | 20443 ft | 415 kts | 307° |
| 2026-04-22 15:35 | 41.55986 | 68.90746 | 20921 ft | 417 kts | 307° |
| 2026-04-22 15:36 | 41.57938 | 68.87863 | 21389 ft | 420 kts | 307° |
| 2026-04-22 15:36 | 41.59901 | 68.84959 | 21863 ft | 422 kts | 306° |
| 2026-04-22 15:36 | 41.61878 | 68.82035 | 22328 ft | 425 kts | 306° |
| 2026-04-22 15:36 | 41.63870 | 68.79087 | 22798 ft | 429 kts | 306° |
| 2026-04-22 15:37 | 41.65875 | 68.76114 | 23218 ft | 432 kts | 306° |
| 2026-04-22 15:37 | 41.67894 | 68.73113 | 23604 ft | 436 kts | 306° |
| 2026-04-22 15:37 | 41.69926 | 68.70087 | 23969 ft | 438 kts | 305° |
| 2026-04-22 15:37 | 41.71971 | 68.67043 | 24334 ft | 441 kts | 305° |
| 2026-04-22 15:38 | 41.74029 | 68.63983 | 24695 ft | 443 kts | 305° |
| 2026-04-22 15:38 | 41.78168 | 68.57806 | 25398 ft | 448 kts | 305° |
| 2026-04-22 15:38 | 41.80257 | 68.54687 | 25743 ft | 451 kts | 305° |
| 2026-04-22 15:39 | 41.82360 | 68.51547 | 26073 ft | 454 kts | 305° |
| 2026-04-22 15:39 | 41.84472 | 68.48384 | 26404 ft | 456 kts | 304° |
| 2026-04-22 15:39 | 41.86577 | 68.45185 | 26727 ft | 458 kts | 304° |
| 2026-04-22 15:39 | 41.88694 | 68.41971 | 27049 ft | 461 kts | 304° |
| 2026-04-22 15:40 | 41.90829 | 68.38745 | 27368 ft | 463 kts | 304° |
| 2026-04-22 15:40 | 41.92977 | 68.35507 | 27668 ft | 465 kts | 304° |
| 2026-04-22 15:40 | 41.95138 | 68.32264 | 28052 ft | 466 kts | 305° |
| 2026-04-22 15:40 | 41.97310 | 68.29042 | 28476 ft | 464 kts | 304° |
| 2026-04-22 15:41 | 41.99464 | 68.25818 | 28886 ft | 463 kts | 304° |
| 2026-04-22 15:41 | 42.01606 | 68.22593 | 29292 ft | 462 kts | 304° |
| 2026-04-22 15:41 | 42.03730 | 68.19430 | 29690 ft | 462 kts | 305° |
| 2026-04-22 15:41 | 42.05947 | 68.16224 | 30063 ft | 461 kts | 306° |
| 2026-04-22 15:42 | 42.08133 | 68.13065 | 30384 ft | 461 kts | 306° |
| 2026-04-22 15:42 | 42.10308 | 68.09918 | 30721 ft | 460 kts | 306° |
| 2026-04-22 15:42 | 42.12462 | 68.06809 | 31010 ft | 460 kts | 306° |
| 2026-04-22 15:42 | 42.14640 | 68.03660 | 31319 ft | 459 kts | 305° |
| 2026-04-22 15:43 | 42.16812 | 68.00513 | 31636 ft | 458 kts | 305° |
| 2026-04-22 15:43 | 42.18977 | 67.97368 | 31944 ft | 457 kts | 304° |
| 2026-04-22 15:43 | 42.21135 | 67.94225 | 32246 ft | 456 kts | 304° |
| 2026-04-22 15:43 | 42.23234 | 67.91162 | 32519 ft | 455 kts | 304° |
| 2026-04-22 15:44 | 42.25435 | 67.87953 | 32831 ft | 454 kts | 304° |
| 2026-04-22 15:44 | 42.27585 | 67.84827 | 33117 ft | 453 kts | 303° |
| 2026-04-22 15:44 | 42.29728 | 67.81708 | 33384 ft | 453 kts | 303° |
| 2026-04-22 15:44 | 42.31863 | 67.78590 | 33645 ft | 451 kts | 303° |
| 2026-04-22 15:45 | 42.33992 | 67.75473 | 33846 ft | 452 kts | 303° |
| 2026-04-22 15:45 | 42.36122 | 67.72353 | 33869 ft | 451 kts | 303° |
| 2026-04-22 15:45 | 42.40358 | 67.66116 | 33855 ft | 449 kts | 303° |
| 2026-04-22 15:46 | 42.44591 | 67.59906 | 33836 ft | 449 kts | 303° |
| 2026-04-22 15:46 | 42.48814 | 67.53692 | 33844 ft | 449 kts | 303° |
| 2026-04-22 15:47 | 42.53051 | 67.47433 | 33835 ft | 450 kts | 303° |
| 2026-04-22 15:47 | 42.57270 | 67.41165 | 33830 ft | 449 kts | 302° |
| 2026-04-22 15:48 | 42.61497 | 67.34916 | 33828 ft | 450 kts | 303° |
| 2026-04-22 15:48 | 42.65730 | 67.28661 | 33825 ft | 449 kts | 302° |
| 2026-04-22 15:49 | 42.69940 | 67.22394 | 33836 ft | 449 kts | 302° |
| 2026-04-22 15:49 | 42.74125 | 67.16159 | 33857 ft | 449 kts | 302° |
| 2026-04-22 15:50 | 42.78330 | 67.09872 | 33827 ft | 449 kts | 302° |
| 2026-04-22 15:50 | 42.82533 | 67.03580 | 33824 ft | 449 kts | 302° |
| 2026-04-22 15:51 | 42.86756 | 66.97235 | 33831 ft | 449 kts | 302° |
| 2026-04-22 15:51 | 42.90922 | 66.90980 | 33829 ft | 449 kts | 302° |
| 2026-04-22 15:52 | 42.95112 | 66.84665 | 33825 ft | 449 kts | 302° |
| 2026-04-22 15:52 | 42.99295 | 66.78341 | 33830 ft | 449 kts | 302° |
| 2026-04-22 15:53 | 43.03479 | 66.72001 | 33816 ft | 449 kts | 302° |
| 2026-04-22 15:53 | 43.07655 | 66.65654 | 33814 ft | 449 kts | 302° |
| 2026-04-22 15:54 | 43.11834 | 66.59300 | 33810 ft | 449 kts | 302° |
| 2026-04-22 15:54 | 43.16000 | 66.52926 | 33812 ft | 449 kts | 302° |
| 2026-04-22 15:55 | 43.20170 | 66.46548 | 33808 ft | 449 kts | 302° |
| 2026-04-22 15:55 | 43.24337 | 66.40158 | 33799 ft | 449 kts | 302° |
| 2026-04-22 15:56 | 43.28503 | 66.33773 | 33806 ft | 450 kts | 302° |
| 2026-04-22 15:56 | 43.32677 | 66.27360 | 33795 ft | 450 kts | 302° |
| 2026-04-22 15:57 | 43.36853 | 66.20905 | 33793 ft | 453 kts | 302° |
| 2026-04-22 15:57 | 43.41046 | 66.14431 | 33788 ft | 453 kts | 302° |
| 2026-04-22 15:58 | 43.45256 | 66.07928 | 33789 ft | 456 kts | 302° |
| 2026-04-22 15:58 | 43.49426 | 66.01429 | 33785 ft | 456 kts | 302° |
| 2026-04-22 15:59 | 43.53626 | 65.94891 | 33785 ft | 456 kts | 302° |
| 2026-04-22 15:59 | 43.57834 | 65.88338 | 33808 ft | 456 kts | 302° |
| 2026-04-22 16:00 | 43.62039 | 65.81773 | 33794 ft | 456 kts | 302° |
| 2026-04-22 16:00 | 43.65559 | 65.76262 | 33799 ft | 456 kts | 302° |
| 2026-04-22 16:01 | 43.69730 | 65.69725 | 33790 ft | 456 kts | 302° |
| 2026-04-22 16:01 | 43.73925 | 65.63107 | 33805 ft | 454 kts | 302° |
| 2026-04-22 16:02 | 43.78087 | 65.56533 | 33792 ft | 454 kts | 302° |
| 2026-04-22 16:02 | 43.82252 | 65.49958 | 33795 ft | 454 kts | 302° |
| 2026-04-22 16:03 | 43.86383 | 65.43415 | 33822 ft | 453 kts | 302° |
| 2026-04-22 16:03 | 43.90514 | 65.36860 | 33797 ft | 451 kts | 302° |
| 2026-04-22 16:04 | 43.94635 | 65.30305 | 33794 ft | 450 kts | 302° |
| 2026-04-22 16:04 | 43.98739 | 65.23765 | 33785 ft | 449 kts | 302° |
| 2026-04-22 16:05 | 44.02839 | 65.17217 | 33802 ft | 451 kts | 302° |
| 2026-04-22 16:05 | 44.06949 | 65.10625 | 33789 ft | 451 kts | 302° |
| 2026-04-22 16:06 | 44.11054 | 65.04021 | 33790 ft | 451 kts | 301° |
| 2026-04-22 16:06 | 44.15156 | 64.97409 | 33786 ft | 451 kts | 302° |
| 2026-04-22 16:07 | 44.19265 | 64.90786 | 33792 ft | 452 kts | 301° |
| 2026-04-22 16:07 | 44.23373 | 64.84148 | 33790 ft | 452 kts | 301° |
| 2026-04-22 16:08 | 44.27477 | 64.77501 | 33788 ft | 452 kts | 301° |
| 2026-04-22 16:08 | 44.31565 | 64.70837 | 33796 ft | 452 kts | 301° |
| 2026-04-22 16:09 | 44.35643 | 64.64169 | 33792 ft | 452 kts | 301° |
| 2026-04-22 16:09 | 44.39729 | 64.57494 | 33794 ft | 452 kts | 301° |
| 2026-04-22 16:10 | 44.43794 | 64.50863 | 33793 ft | 452 kts | 301° |
| 2026-04-22 16:10 | 44.47872 | 64.44172 | 33805 ft | 452 kts | 301° |
| 2026-04-22 16:11 | 44.51941 | 64.37469 | 33798 ft | 451 kts | 301° |
| 2026-04-22 16:11 | 44.56008 | 64.30763 | 33813 ft | 451 kts | 301° |
| 2026-04-22 16:12 | 44.60062 | 64.24057 | 33828 ft | 451 kts | 301° |
| 2026-04-22 16:12 | 44.64126 | 64.17340 | 33806 ft | 451 kts | 301° |
| 2026-04-22 16:13 | 44.68183 | 64.10607 | 33800 ft | 451 kts | 301° |
| 2026-04-22 16:13 | 44.72230 | 64.03862 | 33812 ft | 451 kts | 301° |
| 2026-04-22 16:14 | 44.76276 | 63.97117 | 33830 ft | 449 kts | 300° |
| 2026-04-22 16:14 | 44.80275 | 63.90391 | 33813 ft | 448 kts | 300° |
| 2026-04-22 16:15 | 44.84258 | 63.83647 | 33814 ft | 448 kts | 300° |
| 2026-04-22 16:15 | 44.88257 | 63.76923 | 33816 ft | 448 kts | 300° |
| 2026-04-22 16:16 | 44.92268 | 63.70223 | 33834 ft | 444 kts | 300° |
| 2026-04-22 16:16 | 44.96194 | 63.63583 | 33823 ft | 443 kts | 300° |
| 2026-04-22 16:17 | 45.00136 | 63.56885 | 33824 ft | 443 kts | 300° |
| 2026-04-22 16:17 | 45.04080 | 63.50183 | 33825 ft | 443 kts | 300° |
| 2026-04-22 16:18 | 45.08009 | 63.43498 | 33831 ft | 441 kts | 300° |
| 2026-04-22 16:18 | 45.11932 | 63.36820 | 33837 ft | 441 kts | 300° |
| 2026-04-22 16:19 | 45.15846 | 63.30134 | 33850 ft | 443 kts | 300° |
| 2026-04-22 16:19 | 45.19782 | 63.23392 | 33833 ft | 444 kts | 300° |
| 2026-04-22 16:20 | 45.23739 | 63.16604 | 33846 ft | 447 kts | 300° |
| 2026-04-22 16:20 | 45.27692 | 63.09792 | 33848 ft | 447 kts | 300° |
| 2026-04-22 16:21 | 45.31649 | 63.02977 | 33848 ft | 447 kts | 300° |
| 2026-04-22 16:21 | 45.35591 | 62.96157 | 33867 ft | 447 kts | 300° |
| 2026-04-22 16:22 | 45.41515 | 62.85894 | 33852 ft | 448 kts | 300° |
| 2026-04-22 16:23 | 45.47434 | 62.75595 | 33848 ft | 448 kts | 300° |
| 2026-04-22 16:23 | 45.51374 | 62.68722 | 33875 ft | 446 kts | 300° |
| 2026-04-22 16:24 | 45.57212 | 62.58478 | 33854 ft | 445 kts | 299° |
| 2026-04-22 16:25 | 45.61112 | 62.51606 | 33858 ft | 445 kts | 300° |
| 2026-04-22 16:25 | 45.66972 | 62.41294 | 33876 ft | 445 kts | 299° |
| 2026-04-22 16:26 | 45.70873 | 62.34427 | 33857 ft | 445 kts | 299° |
| 2026-04-22 16:26 | 45.74762 | 62.27541 | 33857 ft | 445 kts | 299° |
| 2026-04-22 16:27 | 45.78637 | 62.20623 | 33868 ft | 446 kts | 299° |
| 2026-04-22 16:27 | 45.82523 | 62.13690 | 33869 ft | 447 kts | 300° |
| 2026-04-22 16:28 | 45.86817 | 62.07117 | 33862 ft | 454 kts | 305° |
| 2026-04-22 16:28 | 45.91261 | 62.00679 | 33868 ft | 454 kts | 306° |
| 2026-04-22 16:29 | 45.95682 | 61.94212 | 33865 ft | 453 kts | 305° |
| 2026-04-22 16:29 | 46.00091 | 61.87705 | 33866 ft | 455 kts | 305° |
| 2026-04-22 16:30 | 46.04497 | 61.81180 | 33868 ft | 455 kts | 305° |
| 2026-04-22 16:30 | 46.08897 | 61.74628 | 33871 ft | 455 kts | 305° |
| 2026-04-22 16:31 | 46.13302 | 61.68077 | 33900 ft | 455 kts | 306° |
| 2026-04-22 16:31 | 46.17692 | 61.61506 | 33880 ft | 455 kts | 306° |
| 2026-04-22 16:32 | 46.22076 | 61.54922 | 33880 ft | 455 kts | 305° |
| 2026-04-22 16:32 | 46.26453 | 61.48325 | 33879 ft | 455 kts | 305° |
| 2026-04-22 16:33 | 46.30802 | 61.41775 | 33896 ft | 454 kts | 306° |
| 2026-04-22 16:33 | 46.35163 | 61.35195 | 33881 ft | 453 kts | 306° |
| 2026-04-22 16:34 | 46.39507 | 61.28582 | 33877 ft | 453 kts | 306° |
| 2026-04-22 16:34 | 46.43852 | 61.21965 | 33884 ft | 453 kts | 306° |
| 2026-04-22 16:35 | 46.48198 | 61.15360 | 33880 ft | 452 kts | 306° |
| 2026-04-22 16:35 | 46.52537 | 61.08752 | 33879 ft | 452 kts | 306° |
| 2026-04-22 16:36 | 46.56865 | 61.02127 | 33876 ft | 452 kts | 306° |
| 2026-04-22 16:36 | 46.61189 | 60.95491 | 33904 ft | 452 kts | 307° |
| 2026-04-22 16:37 | 46.65489 | 60.88860 | 33886 ft | 450 kts | 307° |
| 2026-04-22 16:37 | 46.69786 | 60.82219 | 33883 ft | 450 kts | 307° |
| 2026-04-22 16:38 | 46.74090 | 60.75581 | 33886 ft | 450 kts | 307° |
| 2026-04-22 16:38 | 46.78383 | 60.68928 | 33897 ft | 450 kts | 307° |
| 2026-04-22 16:39 | 46.82658 | 60.62292 | 33887 ft | 447 kts | 308° |
| 2026-04-22 16:39 | 46.86910 | 60.55668 | 33889 ft | 447 kts | 307° |
| 2026-04-22 16:40 | 46.91153 | 60.49030 | 33888 ft | 447 kts | 307° |
| 2026-04-22 16:41 | 46.97503 | 60.39091 | 33895 ft | 444 kts | 308° |
| 2026-04-22 16:41 | 47.01709 | 60.32476 | 33899 ft | 444 kts | 308° |
| 2026-04-22 16:42 | 47.05918 | 60.25847 | 33898 ft | 444 kts | 308° |
| 2026-04-22 16:42 | 47.10116 | 60.19206 | 33913 ft | 443 kts | 308° |
| 2026-04-22 16:43 | 47.14305 | 60.12584 | 33906 ft | 442 kts | 308° |
| 2026-04-22 16:43 | 47.18459 | 60.06000 | 33905 ft | 442 kts | 308° |
| 2026-04-22 16:44 | 47.22636 | 59.99360 | 33906 ft | 442 kts | 308° |
| 2026-04-22 16:44 | 47.26794 | 59.92717 | 33885 ft | 440 kts | 308° |
| 2026-04-22 16:45 | 47.30904 | 59.86113 | 33899 ft | 437 kts | 308° |
| 2026-04-22 16:45 | 47.35028 | 59.79526 | 33905 ft | 437 kts | 308° |
| 2026-04-22 16:46 | 47.39144 | 59.72924 | 33905 ft | 437 kts | 308° |
| 2026-04-22 16:46 | 47.43249 | 59.66306 | 33906 ft | 437 kts | 308° |
| 2026-04-22 16:47 | 47.47353 | 59.59683 | 33906 ft | 437 kts | 308° |
| 2026-04-22 16:47 | 47.50756 | 59.54175 | 33906 ft | 437 kts | 308° |
| 2026-04-22 16:48 | 47.55543 | 59.46407 | 33906 ft | 437 kts | 308° |
| 2026-04-22 16:48 | 47.59626 | 59.39761 | 33919 ft | 436 kts | 308° |
| 2026-04-22 16:49 | 47.63709 | 59.33106 | 33906 ft | 436 kts | 308° |
| 2026-04-22 16:49 | 47.67095 | 59.27562 | 33908 ft | 436 kts | 308° |
| 2026-04-22 16:50 | 47.71167 | 59.20890 | 33905 ft | 436 kts | 308° |
| 2026-04-22 16:50 | 47.75231 | 59.14206 | 33926 ft | 436 kts | 307° |
| 2026-04-22 16:51 | 47.79940 | 59.06432 | 33904 ft | 435 kts | 307° |
| 2026-04-22 16:51 | 47.83336 | 59.00833 | 33906 ft | 435 kts | 307° |
| 2026-04-22 16:52 | 47.87377 | 58.94122 | 33906 ft | 435 kts | 307° |
| 2026-04-22 16:52 | 47.91419 | 58.87413 | 33931 ft | 434 kts | 307° |
| 2026-04-22 16:53 | 47.95429 | 58.80737 | 33914 ft | 431 kts | 307° |
| 2026-04-22 16:53 | 47.99406 | 58.74110 | 33913 ft | 431 kts | 307° |
| 2026-04-22 16:54 | 48.03399 | 58.67430 | 33910 ft | 431 kts | 307° |
| 2026-04-22 16:54 | 48.07390 | 58.60738 | 33935 ft | 431 kts | 306° |
| 2026-04-22 16:55 | 48.11364 | 58.54022 | 33906 ft | 431 kts | 306° |
| 2026-04-22 16:55 | 48.15347 | 58.47306 | 33912 ft | 431 kts | 306° |
| 2026-04-22 16:56 | 48.19334 | 58.40587 | 33900 ft | 431 kts | 306° |
| 2026-04-22 16:56 | 48.23299 | 58.33842 | 33902 ft | 431 kts | 306° |
| 2026-04-22 16:57 | 48.27287 | 58.27077 | 33909 ft | 434 kts | 306° |
| 2026-04-22 16:57 | 48.31277 | 58.20293 | 33901 ft | 434 kts | 306° |
| 2026-04-22 16:58 | 48.35269 | 58.13490 | 33895 ft | 434 kts | 306° |
| 2026-04-22 16:58 | 48.39251 | 58.06673 | 33897 ft | 434 kts | 306° |
| 2026-04-22 16:59 | 48.43231 | 57.99820 | 33910 ft | 436 kts | 306° |
| 2026-04-22 16:59 | 48.47224 | 57.92948 | 33901 ft | 436 kts | 306° |
| 2026-04-22 17:00 | 48.51217 | 57.86068 | 33897 ft | 436 kts | 305° |
| 2026-04-22 17:00 | 48.57192 | 57.75731 | 33916 ft | 436 kts | 305° |
| 2026-04-22 17:01 | 48.61175 | 57.68803 | 33898 ft | 437 kts | 305° |
| 2026-04-22 17:01 | 48.65161 | 57.61864 | 33890 ft | 437 kts | 305° |
| 2026-04-22 17:02 | 48.69141 | 57.54914 | 33887 ft | 437 kts | 305° |
| 2026-04-22 17:02 | 48.73091 | 57.47999 | 33913 ft | 437 kts | 305° |
| 2026-04-22 17:03 | 48.77095 | 57.40977 | 33890 ft | 437 kts | 304° |
| 2026-04-22 17:03 | 48.81068 | 57.33998 | 33892 ft | 437 kts | 304° |
| 2026-04-22 17:04 | 48.85014 | 57.27046 | 33879 ft | 438 kts | 304° |
| 2026-04-22 17:04 | 48.88982 | 57.20032 | 33884 ft | 438 kts | 304° |
| 2026-04-22 17:05 | 48.92953 | 57.12996 | 33886 ft | 439 kts | 304° |
| 2026-04-22 17:05 | 48.96929 | 57.05932 | 33882 ft | 440 kts | 304° |
| 2026-04-22 17:06 | 49.00902 | 56.98856 | 33878 ft | 439 kts | 304° |
| 2026-04-22 17:06 | 49.04869 | 56.91769 | 33876 ft | 439 kts | 304° |
| 2026-04-22 17:07 | 49.08828 | 56.84681 | 33872 ft | 439 kts | 304° |
| 2026-04-22 17:07 | 49.12782 | 56.77569 | 33867 ft | 439 kts | 304° |
| 2026-04-22 17:08 | 49.16736 | 56.70453 | 33867 ft | 439 kts | 304° |
| 2026-04-22 17:08 | 49.20684 | 56.63324 | 33869 ft | 439 kts | 303° |
| 2026-04-22 17:09 | 49.24626 | 56.56175 | 33882 ft | 440 kts | 303° |
| 2026-04-22 17:09 | 49.28571 | 56.48989 | 33872 ft | 441 kts | 303° |
| 2026-04-22 17:10 | 49.32528 | 56.41806 | 33863 ft | 441 kts | 303° |
| 2026-04-22 17:10 | 49.36474 | 56.34624 | 33861 ft | 441 kts | 303° |
| 2026-04-22 17:11 | 49.40391 | 56.27391 | 33891 ft | 440 kts | 302° |
| 2026-04-22 17:11 | 49.44310 | 56.20151 | 33866 ft | 441 kts | 303° |
| 2026-04-22 17:12 | 49.48240 | 56.12918 | 33865 ft | 440 kts | 303° |
| 2026-04-22 17:12 | 49.52166 | 56.05674 | 33860 ft | 441 kts | 303° |
| 2026-04-22 17:13 | 49.56082 | 55.98413 | 33890 ft | 440 kts | 303° |
| 2026-04-22 17:13 | 49.59975 | 55.91204 | 33867 ft | 440 kts | 303° |
| 2026-04-22 17:14 | 49.63897 | 55.83958 | 33857 ft | 440 kts | 303° |
| 2026-04-22 17:14 | 49.67811 | 55.76689 | 33858 ft | 440 kts | 303° |
| 2026-04-22 17:15 | 49.71714 | 55.69402 | 33851 ft | 440 kts | 302° |
| 2026-04-22 17:15 | 49.75608 | 55.62094 | 33859 ft | 440 kts | 302° |
| 2026-04-22 17:16 | 49.79499 | 55.54772 | 33846 ft | 440 kts | 302° |
| 2026-04-22 17:16 | 49.83383 | 55.47441 | 33846 ft | 440 kts | 302° |
| 2026-04-22 17:17 | 49.87262 | 55.40098 | 33851 ft | 440 kts | 302° |
| 2026-04-22 17:17 | 49.91129 | 55.32741 | 33864 ft | 441 kts | 302° |
| 2026-04-22 17:18 | 49.95011 | 55.25365 | 33846 ft | 441 kts | 302° |
| 2026-04-22 17:18 | 49.98890 | 55.17978 | 33840 ft | 441 kts | 302° |
| 2026-04-22 17:19 | 50.06621 | 55.03158 | 33866 ft | 441 kts | 303° |
| 2026-04-22 17:20 | 50.14323 | 54.88324 | 33835 ft | 439 kts | 303° |
| 2026-04-22 17:21 | 50.20065 | 54.77197 | 33831 ft | 439 kts | 303° |
| 2026-04-22 17:22 | 50.25802 | 54.66040 | 33834 ft | 439 kts | 303° |
| 2026-04-22 17:23 | 50.31244 | 54.54611 | 33818 ft | 431 kts | 292° |
| 2026-04-22 17:23 | 50.34980 | 54.41887 | 33819 ft | 428 kts | 289° |
| 2026-04-22 17:24 | 50.37465 | 54.33404 | 33841 ft | 430 kts | 290° |
| 2026-04-22 17:24 | 50.39984 | 54.24895 | 33819 ft | 430 kts | 290° |
| 2026-04-22 17:25 | 50.42477 | 54.16361 | 33813 ft | 430 kts | 289° |
| 2026-04-22 17:25 | 50.44958 | 54.07817 | 33808 ft | 430 kts | 289° |
| 2026-04-22 17:26 | 50.47412 | 53.99319 | 33811 ft | 430 kts | 289° |
| 2026-04-22 17:26 | 50.49874 | 53.90752 | 33819 ft | 431 kts | 289° |
| 2026-04-22 17:27 | 50.52350 | 53.82108 | 33810 ft | 431 kts | 289° |
| 2026-04-22 17:27 | 50.54787 | 53.73580 | 33816 ft | 430 kts | 289° |
| 2026-04-22 17:28 | 50.57224 | 53.65016 | 33797 ft | 429 kts | 289° |
| 2026-04-22 17:28 | 50.59657 | 53.56450 | 33804 ft | 429 kts | 289° |
| 2026-04-22 17:29 | 50.62082 | 53.47875 | 33795 ft | 429 kts | 289° |
| 2026-04-22 17:29 | 50.64501 | 53.39292 | 33783 ft | 429 kts | 289° |
| 2026-04-22 17:30 | 50.66914 | 53.30701 | 33783 ft | 429 kts | 289° |
| 2026-04-22 17:30 | 50.69322 | 53.22103 | 33780 ft | 429 kts | 289° |
| 2026-04-22 17:31 | 50.71721 | 53.13502 | 33778 ft | 429 kts | 289° |
| 2026-04-22 17:31 | 50.74120 | 53.04874 | 33796 ft | 429 kts | 289° |
| 2026-04-22 17:32 | 50.76511 | 52.96196 | 33780 ft | 432 kts | 289° |
| 2026-04-22 17:32 | 50.78928 | 52.87519 | 33768 ft | 432 kts | 289° |
| 2026-04-22 17:33 | 50.81318 | 52.78810 | 33766 ft | 432 kts | 289° |
| 2026-04-22 17:33 | 50.83703 | 52.70087 | 33759 ft | 432 kts | 289° |
| 2026-04-22 17:34 | 50.86092 | 52.61355 | 33790 ft | 432 kts | 289° |
| 2026-04-22 17:34 | 50.88490 | 52.52572 | 33761 ft | 436 kts | 289° |
| 2026-04-22 17:35 | 50.90896 | 52.43813 | 33760 ft | 437 kts | 289° |
| 2026-04-22 17:35 | 50.93303 | 52.34973 | 33759 ft | 437 kts | 289° |
| 2026-04-22 17:36 | 50.95702 | 52.26142 | 33754 ft | 436 kts | 289° |
| 2026-04-22 17:36 | 50.98101 | 52.17293 | 33752 ft | 436 kts | 289° |
| 2026-04-22 17:37 | 51.00492 | 52.08431 | 33759 ft | 438 kts | 289° |
| 2026-04-22 17:37 | 51.02884 | 51.99532 | 33753 ft | 438 kts | 289° |
| 2026-04-22 17:38 | 51.04863 | 51.92123 | 33751 ft | 438 kts | 289° |
| 2026-04-22 17:38 | 51.07240 | 51.83206 | 33747 ft | 438 kts | 289° |
| 2026-04-22 17:39 | 51.09615 | 51.74293 | 33745 ft | 438 kts | 289° |
| 2026-04-22 17:40 | 51.13155 | 51.60881 | 33755 ft | 438 kts | 289° |
| 2026-04-22 17:40 | 51.15673 | 51.52038 | 33758 ft | 441 kts | 295° |
| 2026-04-22 17:41 | 51.18658 | 51.43497 | 33758 ft | 441 kts | 295° |
| 2026-04-22 17:41 | 51.21642 | 51.34949 | 33753 ft | 441 kts | 295° |
| 2026-04-22 17:42 | 51.24608 | 51.26388 | 33750 ft | 442 kts | 295° |
| 2026-04-22 17:42 | 51.27578 | 51.17789 | 33740 ft | 442 kts | 295° |
| 2026-04-22 17:43 | 51.30543 | 51.09174 | 33734 ft | 442 kts | 294° |
| 2026-04-22 17:43 | 51.33498 | 51.00545 | 33734 ft | 442 kts | 294° |
| 2026-04-22 17:44 | 51.36431 | 50.91963 | 33725 ft | 442 kts | 294° |
| 2026-04-22 17:44 | 51.39396 | 50.83257 | 33733 ft | 443 kts | 294° |
| 2026-04-22 17:45 | 51.42324 | 50.74634 | 33720 ft | 444 kts | 294° |
| 2026-04-22 17:45 | 51.45261 | 50.65936 | 33717 ft | 444 kts | 294° |
| 2026-04-22 17:46 | 51.48191 | 50.57233 | 33707 ft | 444 kts | 294° |
| 2026-04-22 17:46 | 51.50879 | 50.48358 | 33708 ft | 442 kts | 291° |
| 2026-04-22 17:47 | 51.53462 | 50.39399 | 33710 ft | 442 kts | 291° |
| 2026-04-22 17:47 | 51.56042 | 50.30419 | 33708 ft | 443 kts | 291° |
| 2026-04-22 17:48 | 51.58607 | 50.21419 | 33699 ft | 443 kts | 290° |
| 2026-04-22 17:48 | 51.61180 | 50.12418 | 33699 ft | 443 kts | 290° |
| 2026-04-22 17:49 | 51.63737 | 50.03414 | 33719 ft | 443 kts | 290° |
| 2026-04-22 17:49 | 51.66292 | 49.94379 | 33691 ft | 444 kts | 291° |
| 2026-04-22 17:50 | 51.68841 | 49.85324 | 33688 ft | 444 kts | 291° |
| 2026-04-22 17:50 | 51.71382 | 49.76256 | 33683 ft | 444 kts | 290° |
| 2026-04-22 17:51 | 51.73928 | 49.67188 | 33682 ft | 444 kts | 290° |
| 2026-04-22 17:51 | 51.76457 | 49.58112 | 33693 ft | 444 kts | 291° |
| 2026-04-22 17:52 | 51.78995 | 49.48988 | 33682 ft | 446 kts | 290° |
| 2026-04-22 17:52 | 51.81521 | 49.39828 | 33677 ft | 446 kts | 290° |
| 2026-04-22 17:53 | 51.84039 | 49.30665 | 33677 ft | 446 kts | 290° |
| 2026-04-22 17:53 | 51.86551 | 49.21496 | 33676 ft | 446 kts | 290° |
| 2026-04-22 17:54 | 51.89056 | 49.12319 | 33675 ft | 446 kts | 290° |
| 2026-04-22 17:54 | 51.91558 | 49.03157 | 33673 ft | 444 kts | 291° |
| 2026-04-22 17:55 | 51.94036 | 48.94000 | 33677 ft | 444 kts | 290° |
| 2026-04-22 17:55 | 51.96511 | 48.84822 | 33664 ft | 444 kts | 290° |
| 2026-04-22 17:56 | 51.98963 | 48.75695 | 33668 ft | 444 kts | 290° |
| 2026-04-22 17:56 | 52.01436 | 48.66435 | 33678 ft | 445 kts | 290° |
| 2026-04-22 17:57 | 52.03878 | 48.57258 | 33667 ft | 446 kts | 290° |
| 2026-04-22 17:57 | 52.06333 | 48.47992 | 33667 ft | 447 kts | 290° |
| 2026-04-22 17:58 | 52.08792 | 48.38670 | 33666 ft | 446 kts | 290° |
| 2026-04-22 17:58 | 52.11232 | 48.29394 | 33673 ft | 446 kts | 290° |
| 2026-04-22 17:59 | 52.13650 | 48.20176 | 33682 ft | 446 kts | 291° |
| 2026-04-22 17:59 | 52.16196 | 48.10859 | 33677 ft | 448 kts | 291° |
| 2026-04-22 18:00 | 52.18307 | 48.03171 | 33676 ft | 448 kts | 291° |
| 2026-04-22 18:00 | 52.21249 | 47.92400 | 33676 ft | 447 kts | 291° |
| 2026-04-22 18:01 | 52.23784 | 47.83069 | 33676 ft | 447 kts | 291° |
| 2026-04-22 18:01 | 52.26277 | 47.73868 | 33683 ft | 446 kts | 292° |
| 2026-04-22 18:02 | 52.28777 | 47.64599 | 33678 ft | 446 kts | 291° |
| 2026-04-22 18:02 | 52.31287 | 47.55262 | 33678 ft | 446 kts | 291° |
| 2026-04-22 18:03 | 52.33749 | 47.46035 | 33676 ft | 446 kts | 291° |
| 2026-04-22 18:03 | 52.36230 | 47.36733 | 33680 ft | 446 kts | 291° |
| 2026-04-22 18:04 | 52.38708 | 47.27421 | 33687 ft | 446 kts | 292° |
| 2026-04-22 18:04 | 52.41166 | 47.18116 | 33677 ft | 446 kts | 291° |
| 2026-04-22 18:05 | 52.43624 | 47.08794 | 33678 ft | 446 kts | 291° |
| 2026-04-22 18:05 | 52.46076 | 46.99463 | 33678 ft | 445 kts | 291° |
| 2026-04-22 18:06 | 52.48516 | 46.90133 | 33680 ft | 445 kts | 291° |
| 2026-04-22 18:06 | 52.50945 | 46.80790 | 33683 ft | 445 kts | 291° |
| 2026-04-22 18:07 | 52.52974 | 46.72944 | 33679 ft | 445 kts | 291° |
| 2026-04-22 18:07 | 52.55779 | 46.62053 | 33687 ft | 445 kts | 291° |
| 2026-04-22 18:08 | 52.58181 | 46.52666 | 33672 ft | 445 kts | 291° |
| 2026-04-22 18:08 | 52.60575 | 46.43291 | 33685 ft | 444 kts | 291° |
| 2026-04-22 18:09 | 52.62912 | 46.33894 | 33687 ft | 444 kts | 289° |
| 2026-04-22 18:09 | 52.65057 | 46.24366 | 33683 ft | 444 kts | 289° |
| 2026-04-22 18:10 | 52.67196 | 46.14829 | 33685 ft | 444 kts | 289° |
| 2026-04-22 18:10 | 52.69327 | 46.05281 | 33684 ft | 444 kts | 289° |
| 2026-04-22 18:11 | 52.71453 | 45.95724 | 33679 ft | 444 kts | 289° |
| 2026-04-22 18:11 | 52.73568 | 45.86155 | 33692 ft | 444 kts | 289° |
| 2026-04-22 18:12 | 52.75674 | 45.76579 | 33680 ft | 444 kts | 289° |
| 2026-04-22 18:12 | 52.77424 | 45.68602 | 33699 ft | 444 kts | 289° |
| 2026-04-22 18:13 | 52.79873 | 45.57380 | 33689 ft | 444 kts | 289° |
| 2026-04-22 18:13 | 52.81958 | 45.47761 | 33679 ft | 444 kts | 289° |
| 2026-04-22 18:14 | 52.84037 | 45.38127 | 33684 ft | 446 kts | 289° |
| 2026-04-22 18:14 | 52.86115 | 45.28447 | 33694 ft | 447 kts | 289° |
| 2026-04-22 18:15 | 52.88187 | 45.18743 | 33701 ft | 447 kts | 289° |
| 2026-04-22 18:15 | 52.90249 | 45.09032 | 33699 ft | 447 kts | 289° |
| 2026-04-22 18:16 | 52.92299 | 44.99333 | 33694 ft | 446 kts | 289° |
| 2026-04-22 18:16 | 52.94451 | 44.89674 | 33699 ft | 447 kts | 290° |
| 2026-04-22 18:17 | 52.96621 | 44.79998 | 33685 ft | 447 kts | 290° |
| 2026-04-22 18:17 | 52.98768 | 44.70334 | 33694 ft | 446 kts | 290° |
| 2026-04-22 18:18 | 53.00919 | 44.60670 | 33702 ft | 446 kts | 290° |
| 2026-04-22 18:18 | 53.03047 | 44.51065 | 33683 ft | 446 kts | 290° |
| 2026-04-22 18:19 | 53.05176 | 44.41383 | 33693 ft | 446 kts | 290° |
| 2026-04-22 18:19 | 53.07311 | 44.31623 | 33689 ft | 446 kts | 290° |
| 2026-04-22 18:20 | 53.09422 | 44.21913 | 33685 ft | 448 kts | 290° |
| 2026-04-22 18:20 | 53.11521 | 44.12228 | 33688 ft | 448 kts | 290° |
| 2026-04-22 18:21 | 53.13628 | 44.02467 | 33693 ft | 448 kts | 290° |
| 2026-04-22 18:21 | 53.15711 | 43.92685 | 33693 ft | 448 kts | 290° |
| 2026-04-22 18:22 | 53.17777 | 43.82882 | 33687 ft | 448 kts | 290° |
| 2026-04-22 18:22 | 53.19861 | 43.73094 | 33695 ft | 448 kts | 290° |
| 2026-04-22 18:23 | 53.21956 | 43.63294 | 33692 ft | 448 kts | 290° |
| 2026-04-22 18:23 | 53.23674 | 43.55127 | 33696 ft | 448 kts | 290° |
| 2026-04-22 18:24 | 53.26776 | 43.40398 | 33693 ft | 448 kts | 290° |
| 2026-04-22 18:25 | 53.29860 | 43.25560 | 33694 ft | 448 kts | 290° |
| 2026-04-22 18:25 | 53.31890 | 43.15726 | 33695 ft | 447 kts | 290° |
| 2026-04-22 18:26 | 53.34907 | 43.01021 | 33697 ft | 447 kts | 289° |
| 2026-04-22 18:26 | 53.36914 | 42.91178 | 33684 ft | 447 kts | 289° |
| 2026-04-22 18:27 | 53.38909 | 42.81329 | 33697 ft | 446 kts | 289° |
| 2026-04-22 18:27 | 53.40895 | 42.71492 | 33684 ft | 446 kts | 289° |
| 2026-04-22 18:28 | 53.42877 | 42.61644 | 33680 ft | 446 kts | 289° |
| 2026-04-22 18:28 | 53.44849 | 42.51782 | 33676 ft | 446 kts | 289° |
| 2026-04-22 18:29 | 53.46688 | 42.41841 | 33676 ft | 446 kts | 288° |
| 2026-04-22 18:29 | 53.48456 | 42.31831 | 33683 ft | 449 kts | 288° |
| 2026-04-22 18:30 | 53.51099 | 42.16751 | 33678 ft | 449 kts | 288° |
| 2026-04-22 18:31 | 53.52848 | 42.06687 | 33678 ft | 449 kts | 287° |
| 2026-04-22 18:31 | 53.54589 | 41.96615 | 33678 ft | 449 kts | 287° |
| 2026-04-22 18:32 | 53.56328 | 41.86537 | 33661 ft | 449 kts | 287° |
| 2026-04-22 18:32 | 53.58053 | 41.76446 | 33670 ft | 449 kts | 287° |
| 2026-04-22 18:33 | 53.59735 | 41.66327 | 33668 ft | 449 kts | 287° |
| 2026-04-22 18:33 | 53.61434 | 41.56229 | 33667 ft | 449 kts | 287° |
| 2026-04-22 18:34 | 53.63129 | 41.46114 | 33660 ft | 449 kts | 287° |
| 2026-04-22 18:34 | 53.64829 | 41.35998 | 33655 ft | 448 kts | 287° |
| 2026-04-22 18:35 | 53.66510 | 41.25910 | 33656 ft | 445 kts | 287° |
| 2026-04-22 18:35 | 53.68204 | 41.15874 | 33640 ft | 444 kts | 287° |
| 2026-04-22 18:36 | 53.69853 | 41.05896 | 33651 ft | 444 kts | 287° |
| 2026-04-22 18:36 | 53.72012 | 40.96164 | 33651 ft | 443 kts | 295° |
| 2026-04-22 18:37 | 53.74505 | 40.86594 | 33632 ft | 442 kts | 295° |
| 2026-04-22 18:37 | 53.76940 | 40.77164 | 33641 ft | 440 kts | 295° |
| 2026-04-22 18:38 | 53.79380 | 40.67667 | 33639 ft | 440 kts | 295° |
| 2026-04-22 18:38 | 53.81813 | 40.58157 | 33641 ft | 440 kts | 295° |
| 2026-04-22 18:39 | 53.85441 | 40.43880 | 33627 ft | 440 kts | 295° |
| 2026-04-22 18:39 | 53.87849 | 40.34363 | 33626 ft | 438 kts | 295° |
| 2026-04-22 18:40 | 53.90250 | 40.24839 | 33625 ft | 440 kts | 295° |
| 2026-04-22 18:40 | 53.92661 | 40.15304 | 33624 ft | 440 kts | 295° |
| 2026-04-22 18:41 | 53.95060 | 40.05737 | 33620 ft | 441 kts | 295° |
| 2026-04-22 18:41 | 53.97449 | 39.96153 | 33623 ft | 440 kts | 295° |
| 2026-04-22 18:42 | 53.99830 | 39.86591 | 33607 ft | 436 kts | 295° |
| 2026-04-22 18:42 | 54.02189 | 39.77086 | 33611 ft | 437 kts | 294° |
| 2026-04-22 18:43 | 54.04541 | 39.67559 | 33604 ft | 437 kts | 294° |
| 2026-04-22 18:43 | 54.06857 | 39.58074 | 33609 ft | 437 kts | 294° |
| 2026-04-22 18:44 | 54.09191 | 39.48534 | 33609 ft | 437 kts | 294° |
| 2026-04-22 18:44 | 54.11517 | 39.38975 | 33607 ft | 437 kts | 294° |
| 2026-04-22 18:45 | 54.13842 | 39.29410 | 33599 ft | 437 kts | 294° |
| 2026-04-22 18:45 | 54.16152 | 39.19830 | 33606 ft | 437 kts | 294° |
| 2026-04-22 18:46 | 54.18454 | 39.10247 | 33597 ft | 437 kts | 294° |
| 2026-04-22 18:46 | 54.20727 | 39.00610 | 33595 ft | 438 kts | 294° |
| 2026-04-22 18:47 | 54.23020 | 38.90995 | 33583 ft | 434 kts | 297° |
| 2026-04-22 18:47 | 54.26124 | 38.82200 | 33591 ft | 432 kts | 305° |
| 2026-04-22 18:48 | 54.29444 | 38.73618 | 33593 ft | 433 kts | 304° |
| 2026-04-22 18:48 | 54.32735 | 38.64981 | 33595 ft | 433 kts | 304° |
| 2026-04-22 18:49 | 54.35993 | 38.56378 | 33583 ft | 433 kts | 304° |
| 2026-04-22 18:49 | 54.39249 | 38.47719 | 33579 ft | 430 kts | 304° |
| 2026-04-22 18:50 | 54.42485 | 38.39086 | 33576 ft | 430 kts | 304° |
| 2026-04-22 18:50 | 54.45712 | 38.30449 | 33583 ft | 430 kts | 304° |
| 2026-04-22 18:51 | 54.48932 | 38.21779 | 33571 ft | 430 kts | 304° |
| 2026-04-22 18:51 | 54.51719 | 38.12646 | 33571 ft | 432 kts | 297° |
| 2026-04-22 18:52 | 54.54313 | 38.03362 | 33566 ft | 429 kts | 297° |
| 2026-04-22 18:52 | 54.56890 | 37.94126 | 33571 ft | 427 kts | 297° |
| 2026-04-22 18:53 | 54.59470 | 37.84870 | 33569 ft | 429 kts | 297° |
| 2026-04-22 18:53 | 54.62042 | 37.75577 | 33566 ft | 429 kts | 297° |
| 2026-04-22 18:54 | 54.64604 | 37.66269 | 33560 ft | 429 kts | 297° |
| 2026-04-22 18:54 | 54.67170 | 37.56969 | 33554 ft | 429 kts | 297° |
| 2026-04-22 18:55 | 54.69721 | 37.47659 | 33563 ft | 428 kts | 297° |
| 2026-04-22 18:55 | 54.72075 | 37.38205 | 33560 ft | 430 kts | 288° |
| 2026-04-22 18:56 | 54.72621 | 37.33114 | 33553 ft | 432 kts | 277° |
| 2026-04-22 18:56 | 54.72739 | 37.27898 | 33568 ft | 435 kts | 273° |
| 2026-04-22 18:56 | 54.73300 | 37.17653 | 33549 ft | 430 kts | 290° |
| 2026-04-22 18:57 | 54.75712 | 37.08259 | 33558 ft | 425 kts | 297° |
| 2026-04-22 18:57 | 54.78252 | 36.99017 | 33557 ft | 425 kts | 297° |
| 2026-04-22 18:58 | 54.80727 | 36.89713 | 33552 ft | 425 kts | 296° |
| 2026-04-22 18:58 | 54.83185 | 36.80399 | 33553 ft | 425 kts | 296° |
| 2026-04-22 18:59 | 54.85650 | 36.71073 | 33553 ft | 425 kts | 296° |
| 2026-04-22 18:59 | 54.88098 | 36.61740 | 33549 ft | 423 kts | 296° |
| 2026-04-22 19:00 | 54.90528 | 36.52462 | 33557 ft | 422 kts | 296° |
| 2026-04-22 19:00 | 54.92941 | 36.43170 | 33553 ft | 422 kts | 296° |
| 2026-04-22 19:01 | 54.95360 | 36.33862 | 33545 ft | 422 kts | 296° |
| 2026-04-22 19:01 | 54.97759 | 36.24526 | 33544 ft | 423 kts | 296° |
| 2026-04-22 19:02 | 55.00160 | 36.15187 | 33543 ft | 422 kts | 296° |
| 2026-04-22 19:02 | 55.02541 | 36.05933 | 33549 ft | 421 kts | 296° |
| 2026-04-22 19:03 | 55.04929 | 35.96544 | 33546 ft | 421 kts | 296° |
| 2026-04-22 19:03 | 55.07281 | 35.87258 | 33545 ft | 421 kts | 296° |
| 2026-04-22 19:04 | 55.09649 | 35.77907 | 33539 ft | 421 kts | 296° |
| 2026-04-22 19:04 | 55.12004 | 35.68540 | 33529 ft | 421 kts | 296° |
| 2026-04-22 19:05 | 55.14351 | 35.59195 | 33538 ft | 419 kts | 296° |
| 2026-04-22 19:05 | 55.16681 | 35.49854 | 33535 ft | 419 kts | 296° |
| 2026-04-22 19:06 | 55.19005 | 35.40486 | 33510 ft | 419 kts | 296° |
| 2026-04-22 19:07 | 55.22477 | 35.26427 | 33533 ft | 419 kts | 296° |
| 2026-04-22 19:07 | 55.24792 | 35.17060 | 33527 ft | 419 kts | 296° |
| 2026-04-22 19:08 | 55.27082 | 35.07683 | 33529 ft | 418 kts | 296° |
| 2026-04-22 19:08 | 55.29364 | 34.98303 | 33529 ft | 418 kts | 296° |
| 2026-04-22 19:09 | 55.31644 | 34.88925 | 33529 ft | 418 kts | 296° |
| 2026-04-22 19:09 | 55.33530 | 34.81109 | 33530 ft | 418 kts | 296° |
| 2026-04-22 19:10 | 55.36143 | 34.70161 | 33527 ft | 418 kts | 296° |
| 2026-04-22 19:10 | 55.38389 | 34.60736 | 33535 ft | 418 kts | 296° |
| 2026-04-22 19:11 | 55.40641 | 34.51309 | 33530 ft | 418 kts | 296° |
| 2026-04-22 19:11 | 55.42888 | 34.41880 | 33530 ft | 418 kts | 296° |
| 2026-04-22 19:12 | 55.45122 | 34.32426 | 33529 ft | 418 kts | 296° |
| 2026-04-22 19:12 | 55.47350 | 34.22956 | 33526 ft | 418 kts | 296° |
| 2026-04-22 19:13 | 55.49572 | 34.13508 | 33521 ft | 415 kts | 296° |
| 2026-04-22 19:13 | 55.51779 | 34.04101 | 33523 ft | 415 kts | 296° |
| 2026-04-22 19:14 | 55.53615 | 33.96266 | 33524 ft | 415 kts | 296° |
| 2026-04-22 19:14 | 55.55808 | 33.86823 | 33524 ft | 415 kts | 296° |
| 2026-04-22 19:15 | 55.57632 | 33.78908 | 33519 ft | 416 kts | 296° |
| 2026-04-22 19:15 | 55.60153 | 33.67913 | 33506 ft | 414 kts | 296° |
| 2026-04-22 19:16 | 55.62306 | 33.58493 | 33513 ft | 413 kts | 296° |
| 2026-04-22 19:16 | 55.64448 | 33.49068 | 33513 ft | 413 kts | 296° |
| 2026-04-22 19:17 | 55.66584 | 33.39641 | 33518 ft | 413 kts | 296° |
| 2026-04-22 19:17 | 55.68719 | 33.30200 | 33512 ft | 413 kts | 296° |
| 2026-04-22 19:18 | 55.70832 | 33.20735 | 33517 ft | 413 kts | 296° |
| 2026-04-22 19:18 | 55.72947 | 33.11280 | 33510 ft | 412 kts | 296° |
| 2026-04-22 19:19 | 55.75049 | 33.01840 | 33512 ft | 412 kts | 296° |
| 2026-04-22 19:19 | 55.77143 | 32.92373 | 33522 ft | 412 kts | 296° |
| 2026-04-22 19:20 | 55.79216 | 32.82954 | 33527 ft | 412 kts | 296° |
| 2026-04-22 19:20 | 55.81295 | 32.73477 | 33526 ft | 412 kts | 296° |
| 2026-04-22 19:21 | 55.83371 | 32.63994 | 33524 ft | 410 kts | 297° |
| 2026-04-22 19:21 | 55.85417 | 32.54559 | 33519 ft | 409 kts | 296° |
| 2026-04-22 19:22 | 55.87466 | 32.45117 | 33522 ft | 409 kts | 296° |
| 2026-04-22 19:22 | 55.89502 | 32.35660 | 33520 ft | 409 kts | 296° |
| 2026-04-22 19:23 | 55.91528 | 32.26188 | 33520 ft | 409 kts | 296° |
| 2026-04-22 19:23 | 55.93553 | 32.16715 | 33491 ft | 409 kts | 296° |
| 2026-04-22 19:24 | 55.95559 | 32.07248 | 33515 ft | 407 kts | 297° |
| 2026-04-22 19:24 | 55.97562 | 31.97795 | 33521 ft | 407 kts | 297° |
| 2026-04-22 19:25 | 55.99558 | 31.88327 | 33527 ft | 407 kts | 297° |
| 2026-04-22 19:25 | 56.01548 | 31.78845 | 33526 ft | 407 kts | 297° |
| 2026-04-22 19:26 | 56.03518 | 31.69354 | 33523 ft | 408 kts | 297° |
| 2026-04-22 19:26 | 56.05488 | 31.59852 | 33507 ft | 407 kts | 298° |
| 2026-04-22 19:27 | 56.07446 | 31.50357 | 33531 ft | 407 kts | 299° |
| 2026-04-22 19:27 | 56.09408 | 31.40849 | 33538 ft | 407 kts | 299° |
| 2026-04-22 19:28 | 56.11356 | 31.31314 | 33546 ft | 407 kts | 299° |
| 2026-04-22 19:28 | 56.13285 | 31.21831 | 33547 ft | 408 kts | 299° |
| 2026-04-22 19:29 | 56.15223 | 31.12277 | 33523 ft | 408 kts | 299° |
| 2026-04-22 19:29 | 56.17142 | 31.02745 | 33541 ft | 406 kts | 300° |
| 2026-04-22 19:30 | 56.18747 | 30.94750 | 33551 ft | 406 kts | 300° |
| 2026-04-22 19:30 | 56.20965 | 30.83658 | 33553 ft | 406 kts | 299° |
| 2026-04-22 19:31 | 56.22868 | 30.74104 | 33556 ft | 406 kts | 300° |
| 2026-04-22 19:31 | 56.24762 | 30.64540 | 33560 ft | 406 kts | 299° |
| 2026-04-22 19:32 | 56.26642 | 30.54968 | 33542 ft | 405 kts | 300° |
| 2026-04-22 19:32 | 56.28503 | 30.45435 | 33558 ft | 403 kts | 300° |
| 2026-04-22 19:33 | 56.30364 | 30.35913 | 33567 ft | 404 kts | 300° |
| 2026-04-22 19:33 | 56.32214 | 30.26367 | 33570 ft | 404 kts | 300° |
| 2026-04-22 19:34 | 56.34057 | 30.16807 | 33568 ft | 404 kts | 300° |
| 2026-04-22 19:34 | 56.35895 | 30.07241 | 33570 ft | 404 kts | 300° |
| 2026-04-22 19:35 | 56.37724 | 29.97680 | 33571 ft | 402 kts | 300° |
| 2026-04-22 19:35 | 56.39543 | 29.88124 | 33576 ft | 403 kts | 300° |
| 2026-04-22 19:36 | 56.41348 | 29.78548 | 33581 ft | 403 kts | 300° |
| 2026-04-22 19:36 | 56.43154 | 29.68974 | 33583 ft | 403 kts | 300° |
| 2026-04-22 19:37 | 56.44948 | 29.59394 | 33587 ft | 403 kts | 300° |
| 2026-04-22 19:37 | 56.46737 | 29.49794 | 33588 ft | 403 kts | 300° |
| 2026-04-22 19:38 | 56.48505 | 29.40246 | 33599 ft | 403 kts | 300° |
| 2026-04-22 19:38 | 56.50283 | 29.30626 | 33593 ft | 403 kts | 300° |
| 2026-04-22 19:39 | 56.52048 | 29.20995 | 33594 ft | 403 kts | 300° |
| 2026-04-22 19:39 | 56.53805 | 29.11346 | 33601 ft | 403 kts | 300° |
| 2026-04-22 19:40 | 56.55558 | 29.01689 | 33604 ft | 403 kts | 299° |
| 2026-04-22 19:40 | 56.57303 | 28.92022 | 33588 ft | 403 kts | 300° |
| 2026-04-22 19:41 | 56.59044 | 28.82354 | 33606 ft | 403 kts | 300° |
| 2026-04-22 19:41 | 56.60773 | 28.72680 | 33623 ft | 403 kts | 299° |
| 2026-04-22 19:42 | 56.62491 | 28.62987 | 33621 ft | 403 kts | 299° |
| 2026-04-22 19:42 | 56.64185 | 28.53268 | 33638 ft | 403 kts | 299° |
| 2026-04-22 19:43 | 56.66758 | 28.38709 | 33603 ft | 404 kts | 299° |
| 2026-04-22 19:43 | 56.68475 | 28.28982 | 33645 ft | 404 kts | 299° |
| 2026-04-22 19:44 | 56.70172 | 28.19226 | 33655 ft | 404 kts | 299° |
| 2026-04-22 19:44 | 56.71861 | 28.09457 | 33674 ft | 405 kts | 298° |
| 2026-04-22 19:45 | 56.73537 | 27.99683 | 33672 ft | 405 kts | 298° |
| 2026-04-22 19:45 | 56.75113 | 27.89799 | 33672 ft | 414 kts | 292° |
| 2026-04-22 19:46 | 56.75776 | 27.79233 | 33680 ft | 426 kts | 287° |
| 2026-04-22 19:46 | 56.76291 | 27.68408 | 33667 ft | 425 kts | 287° |
| 2026-04-22 19:47 | 56.76831 | 27.57770 | 33697 ft | 424 kts | 287° |
| 2026-04-22 19:47 | 56.77367 | 27.47052 | 33685 ft | 422 kts | 287° |
| 2026-04-22 19:48 | 56.77624 | 27.41743 | 33374 ft | 421 kts | 287° |
| 2026-04-22 19:48 | 56.77882 | 27.36403 | 33111 ft | 424 kts | 287° |
| 2026-04-22 19:48 | 56.78142 | 27.31045 | 32834 ft | 424 kts | 287° |
| 2026-04-22 19:48 | 56.78403 | 27.25681 | 32513 ft | 425 kts | 286° |
| 2026-04-22 19:49 | 56.78654 | 27.20294 | 32247 ft | 427 kts | 286° |
| 2026-04-22 19:49 | 56.78908 | 27.14901 | 31984 ft | 427 kts | 286° |
| 2026-04-22 19:49 | 56.79159 | 27.09508 | 31537 ft | 425 kts | 286° |
| 2026-04-22 19:49 | 56.79406 | 27.04138 | 30913 ft | 424 kts | 286° |
| 2026-04-22 19:50 | 56.79652 | 26.98773 | 30283 ft | 424 kts | 286° |
| 2026-04-22 19:50 | 56.79898 | 26.93419 | 29664 ft | 423 kts | 285° |
| 2026-04-22 19:50 | 56.80140 | 26.88089 | 29019 ft | 420 kts | 285° |
| 2026-04-22 19:50 | 56.80375 | 26.82809 | 28427 ft | 416 kts | 285° |
| 2026-04-22 19:51 | 56.80601 | 26.77566 | 27891 ft | 412 kts | 285° |
| 2026-04-22 19:51 | 56.80821 | 26.72379 | 27384 ft | 407 kts | 285° |
| 2026-04-22 19:51 | 56.81042 | 26.67250 | 26873 ft | 403 kts | 285° |
| 2026-04-22 19:51 | 56.81261 | 26.62180 | 26302 ft | 399 kts | 285° |
| 2026-04-22 19:52 | 56.81477 | 26.57170 | 25805 ft | 395 kts | 285° |
| 2026-04-22 19:52 | 56.81689 | 26.52191 | 25305 ft | 392 kts | 285° |
| 2026-04-22 19:52 | 56.81893 | 26.47256 | 24814 ft | 388 kts | 285° |
| 2026-04-22 19:52 | 56.82095 | 26.42359 | 24310 ft | 385 kts | 285° |
| 2026-04-22 19:53 | 56.82292 | 26.37491 | 23799 ft | 384 kts | 285° |
| 2026-04-22 19:53 | 56.82488 | 26.32648 | 23275 ft | 381 kts | 285° |
| 2026-04-22 19:53 | 56.82616 | 26.29452 | 22890 ft | 380 kts | 285° |
| 2026-04-22 19:53 | 56.82867 | 26.23050 | 22169 ft | 376 kts | 285° |
| 2026-04-22 19:54 | 56.83054 | 26.18307 | 21629 ft | 373 kts | 285° |
| 2026-04-22 19:54 | 56.83221 | 26.13646 | 21133 ft | 376 kts | 282° |
| 2026-04-22 19:54 | 56.83180 | 26.10392 | 20889 ft | 383 kts | 276° |
| 2026-04-22 19:54 | 56.82901 | 26.03964 | 20525 ft | 383 kts | 275° |
| 2026-04-22 19:55 | 56.82665 | 25.99120 | 20226 ft | 384 kts | 275° |
| 2026-04-22 19:55 | 56.82438 | 25.94262 | 19977 ft | 383 kts | 275° |
| 2026-04-22 19:55 | 56.82216 | 25.89418 | 19731 ft | 382 kts | 275° |
| 2026-04-22 19:55 | 56.81997 | 25.84591 | 19493 ft | 381 kts | 275° |
| 2026-04-22 19:56 | 56.81780 | 25.79794 | 19180 ft | 378 kts | 275° |
| 2026-04-22 19:56 | 56.81564 | 25.75031 | 18752 ft | 375 kts | 275° |
| 2026-04-22 19:56 | 56.81349 | 25.70296 | 18308 ft | 374 kts | 275° |
| 2026-04-22 19:56 | 56.81139 | 25.65571 | 17837 ft | 373 kts | 275° |
| 2026-04-22 19:57 | 56.80930 | 25.60862 | 17358 ft | 372 kts | 274° |
| 2026-04-22 19:57 | 56.80715 | 25.56161 | 16873 ft | 371 kts | 274° |
| 2026-04-22 19:57 | 56.80495 | 25.51471 | 16394 ft | 370 kts | 274° |
| 2026-04-22 19:57 | 56.80271 | 25.46800 | 15942 ft | 369 kts | 273° |
| 2026-04-22 19:58 | 56.80048 | 25.42151 | 15498 ft | 367 kts | 273° |
| 2026-04-22 19:58 | 56.79827 | 25.37527 | 15060 ft | 365 kts | 273° |
| 2026-04-22 19:58 | 56.79600 | 25.32929 | 14618 ft | 362 kts | 272° |
| 2026-04-22 19:58 | 56.79373 | 25.28409 | 14185 ft | 354 kts | 272° |
| 2026-04-22 19:59 | 56.79156 | 25.23987 | 13764 ft | 346 kts | 272° |
| 2026-04-22 20:00 | 56.77884 | 24.98937 | 11237 ft | 324 kts | 272° |
| 2026-04-22 20:00 | 56.77674 | 24.94857 | 10868 ft | 321 kts | 272° |
| 2026-04-22 20:01 | 56.77464 | 24.90878 | 10645 ft | 310 kts | 272° |
| 2026-04-22 20:01 | 56.77257 | 24.87052 | 10487 ft | 297 kts | 272° |
| 2026-04-22 20:01 | 56.77061 | 24.83384 | 10352 ft | 284 kts | 272° |
| 2026-04-22 20:01 | 56.76875 | 24.79873 | 10202 ft | 272 kts | 273° |
| 2026-04-22 20:02 | 56.76755 | 24.77621 | 10043 ft | 268 kts | 273° |
| 2026-04-22 20:02 | 56.76572 | 24.74248 | 9651 ft | 267 kts | 272° |
| 2026-04-22 20:02 | 56.76384 | 24.70913 | 9242 ft | 263 kts | 272° |
| 2026-04-22 20:02 | 56.76195 | 24.67623 | 8893 ft | 258 kts | 273° |
| 2026-04-22 20:03 | 56.76014 | 24.64399 | 8557 ft | 254 kts | 274° |
| 2026-04-22 20:03 | 56.75839 | 24.61207 | 8277 ft | 253 kts | 274° |
| 2026-04-22 20:03 | 56.75662 | 24.58024 | 7996 ft | 252 kts | 274° |
| 2026-04-22 20:03 | 56.75484 | 24.54842 | 7710 ft | 252 kts | 274° |
| 2026-04-22 20:04 | 56.75309 | 24.51667 | 7428 ft | 252 kts | 274° |
| 2026-04-22 20:04 | 56.75132 | 24.48483 | 7121 ft | 255 kts | 275° |
| 2026-04-22 20:04 | 56.74953 | 24.45264 | 6597 ft | 257 kts | 275° |
| 2026-04-22 20:04 | 56.74772 | 24.42004 | 6159 ft | 259 kts | 275° |
| 2026-04-22 20:05 | 56.74586 | 24.38738 | 5792 ft | 260 kts | 274° |
| 2026-04-22 20:05 | 56.74396 | 24.35475 | 5609 ft | 259 kts | 275° |
| 2026-04-22 20:05 | 56.74215 | 24.32282 | 5439 ft | 247 kts | 275° |
| 2026-04-22 20:05 | 56.74037 | 24.29244 | 5281 ft | 235 kts | 275° |
| 2026-04-22 20:06 | 56.73868 | 24.26410 | 5121 ft | 226 kts | 276° |
| 2026-04-22 20:06 | 56.73703 | 24.23534 | 4871 ft | 223 kts | 276° |
| 2026-04-22 20:06 | 56.73543 | 24.20735 | 4631 ft | 219 kts | 276° |
| 2026-04-22 20:06 | 56.73383 | 24.18030 | 4400 ft | 212 kts | 276° |
| 2026-04-22 20:07 | 56.73227 | 24.15372 | 4117 ft | 210 kts | 276° |
| 2026-04-22 20:07 | 56.73077 | 24.12735 | 3831 ft | 209 kts | 276° |
| 2026-04-22 20:07 | 56.72897 | 24.10106 | 3540 ft | 213 kts | 271° |
| 2026-04-22 20:07 | 56.72702 | 24.07474 | 3256 ft | 207 kts | 276° |
| 2026-04-22 20:08 | 56.72581 | 24.04938 | 3053 ft | 194 kts | 277° |
| 2026-04-22 20:08 | 56.72466 | 24.02566 | 2894 ft | 181 kts | 279° |
| 2026-04-22 20:08 | 56.72750 | 24.00572 | 2687 ft | 154 kts | 311° |
| 2026-04-22 20:08 | 56.73442 | 23.99159 | 2514 ft | 148 kts | 321° |
| 2026-04-22 20:09 | 56.74182 | 23.97867 | 2325 ft | 147 kts | 321° |
| 2026-04-22 20:09 | 56.74928 | 23.96592 | 2123 ft | 147 kts | 321° |
| 2026-04-22 20:09 | 56.75680 | 23.95348 | 1985 ft | 145 kts | 323° |
| 2026-04-22 20:09 | 56.76617 | 23.94754 | 1979 ft | 146 kts | 350° |
| 2026-04-22 20:10 | 56.77641 | 23.94730 | 1995 ft | 148 kts | 356° |
| 2026-04-22 20:10 | 56.78667 | 23.94863 | 1997 ft | 148 kts | 359° |
| 2026-04-22 20:10 | 56.79658 | 23.95023 | 2016 ft | 133 kts | 359° |
| 2026-04-22 20:10 | 56.80540 | 23.95166 | 1994 ft | 126 kts | 358° |
| 2026-04-22 20:11 | 56.81409 | 23.95307 | 1889 ft | 125 kts | 358° |
| 2026-04-22 20:11 | 56.82281 | 23.95451 | 1729 ft | 126 kts | 357° |
| 2026-04-22 20:11 | 56.83158 | 23.95594 | 1550 ft | 128 kts | 356° |
| 2026-04-22 20:11 | 56.84029 | 23.95741 | 1380 ft | 117 kts | 356° |
| 2026-04-22 20:12 | 56.84823 | 23.95869 | 1214 ft | 115 kts | 356° |
| 2026-04-22 20:12 | 56.85623 | 23.95999 | 1047 ft | 118 kts | 356° |
| 2026-04-22 20:12 | 56.86455 | 23.96136 | 856 ft | 122 kts | 359° |
| 2026-04-22 20:12 | 56.87322 | 23.96291 | 671 ft | 123 kts | 359° |
| 2026-04-22 20:13 | 56.88187 | 23.96420 | 518 ft | 125 kts | 359° |
| 2026-04-22 20:13 | 56.89044 | 23.96568 | 376 ft | 125 kts | 0° |
| 2026-04-22 20:13 | 56.89918 | 23.96718 | 200 ft | 126 kts | 359° |
| 2026-04-22 20:13 | 56.90789 | 23.96860 | 67 ft | 125 kts | 0° |
| 2026-04-22 20:14 | 56.91575 | 23.96972 | 50 ft | 96 kts | 6° |
| 2026-04-22 20:14 | 56.92070 | 23.97070 | 49 ft | 47 kts | 2° |
| 2026-04-22 20:14 | 56.92316 | 23.97120 | 50 ft | 27 kts | 13° |
| 2026-04-22 20:14 | 56.92482 | 23.97272 | 49 ft | 18 kts | 36° |
| 2026-04-22 20:15 | 56.92561 | 23.97376 | 50 ft | 15 kts | 36° |
| 2026-04-22 20:15 | 56.92605 | 23.97434 | 50 ft | 5 kts | 38° |
| 2026-04-22 20:15 | 56.92616 | 23.97504 | 50 ft | 7 kts | 98° |
| 2026-04-22 20:15 | 56.92608 | 23.97612 | 50 ft | 10 kts | 95° |
| 2026-04-22 20:16 | 56.92595 | 23.97716 | 46 ft | 6 kts | 141° |
| 2026-04-22 20:16 | 56.92561 | 23.97730 | 50 ft | 4 kts | 180° |
| 2026-04-22 20:16 | 56.92549 | 23.97728 | 50 ft | 0 kts | 186° |